createdAt,value
2023-03-05T00:01:08.449Z,3.29
2023-03-05T00:03:35.812Z,3.29
2023-03-05T00:06:02.836Z,3.23
2023-03-05T00:08:30.457Z,3.19
2023-03-05T00:11:02.742Z,3.07
2023-03-05T00:13:30.310Z,2.97
2023-03-05T00:15:57.096Z,2.92
2023-03-05T00:18:24.708Z,2.89
2023-03-05T00:20:51.341Z,2.86
2023-03-05T00:23:18.182Z,2.81
2023-03-05T00:25:46.157Z,2.75
2023-03-05T00:28:13.189Z,2.72
2023-03-05T00:30:40.894Z,2.61
2023-03-05T00:33:08.518Z,2.53
2023-03-05T00:35:43.659Z,2.57
2023-03-05T00:38:11.628Z,2.50
2023-03-05T00:40:40.107Z,2.48
2023-03-05T00:43:07.065Z,2.44
2023-03-05T00:45:33.787Z,2.48
2023-03-05T00:48:00.956Z,2.49
2023-03-05T00:50:27.885Z,2.50
2023-03-05T00:52:54.732Z,2.53
2023-03-05T00:55:21.791Z,2.57
2023-03-05T00:57:48.861Z,2.60
2023-03-05T01:00:16.400Z,2.64
2023-03-05T01:02:43.228Z,2.69
2023-03-05T01:05:14.190Z,2.76
2023-03-05T01:07:41.109Z,2.80
2023-03-05T01:10:08.968Z,2.82
2023-03-05T01:12:35.737Z,2.83
2023-03-05T01:15:04.290Z,2.88
2023-03-05T01:17:31.130Z,2.91
2023-03-05T01:19:57.900Z,2.93
2023-03-05T01:22:24.706Z,2.92
2023-03-05T01:24:51.557Z,2.90
2023-03-05T01:27:18.396Z,2.88
2023-03-05T01:29:45.138Z,2.82
2023-03-05T01:32:11.994Z,2.76
2023-03-05T01:34:39.025Z,2.74
2023-03-05T01:37:05.683Z,2.67
2023-03-05T01:39:32.513Z,2.60
2023-03-05T01:41:59.354Z,2.53
2023-03-05T01:44:28.361Z,2.48
2023-03-05T01:46:56.310Z,2.44
2023-03-05T01:49:40.864Z,2.40
2023-03-05T01:52:21.146Z,2.34
2023-03-05T01:54:53.090Z,2.28
2023-03-05T01:57:33.031Z,2.23
2023-03-05T02:00:05.661Z,2.19
2023-03-05T02:02:43.049Z,2.18
2023-03-05T02:05:15.520Z,2.20
2023-03-05T02:07:44.574Z,2.19
2023-03-05T02:10:16.470Z,2.16
2023-03-05T02:12:43.587Z,2.16
2023-03-05T02:15:11.660Z,2.13
2023-03-05T02:17:38.921Z,2.12
2023-03-05T02:20:10.280Z,2.07
2023-03-05T02:22:37.033Z,2.04
2023-03-05T02:25:16.272Z,2.01
2023-03-05T02:27:50.969Z,1.99
2023-03-05T02:30:18.830Z,1.97
2023-03-05T02:32:45.604Z,1.90
2023-03-05T02:35:12.999Z,1.90
2023-03-05T02:37:40.363Z,1.90
2023-03-05T02:40:10.140Z,1.88
2023-03-05T02:42:37.141Z,1.88
2023-03-05T02:45:05.627Z,1.86
2023-03-05T02:47:32.665Z,1.83
2023-03-05T02:49:59.613Z,1.79
2023-03-05T02:52:28.130Z,1.77
2023-03-05T02:54:54.936Z,1.76
2023-03-05T02:57:23.535Z,1.72
2023-03-05T02:59:50.826Z,1.70
2023-03-05T03:02:17.626Z,1.69
2023-03-05T03:04:45.281Z,1.70
2023-03-05T03:07:13.562Z,1.67
2023-03-05T03:09:42.354Z,1.67
2023-03-05T03:12:10.125Z,1.64
2023-03-05T03:14:40.645Z,1.62
2023-03-05T03:17:18.061Z,1.62
2023-03-05T03:19:45.819Z,1.60
2023-03-05T03:22:14.892Z,1.59
2023-03-05T03:24:43.064Z,1.56
2023-03-05T03:27:10.433Z,1.56
2023-03-05T03:29:37.382Z,1.57
2023-03-05T03:32:04.389Z,1.56
2023-03-05T03:34:31.157Z,1.59
2023-03-05T03:36:57.894Z,1.60
2023-03-05T03:39:24.960Z,1.63
2023-03-05T03:41:53.013Z,1.59
2023-03-05T03:44:20.686Z,1.59
2023-03-05T03:46:49.270Z,1.57
2023-03-05T03:49:22.599Z,1.58
2023-03-05T03:51:51.353Z,1.59
2023-03-05T03:54:18.813Z,1.61
2023-03-05T03:56:45.554Z,1.56
2023-03-05T03:59:13.823Z,1.48
2023-03-05T04:01:40.645Z,1.38
2023-03-05T04:04:08.454Z,1.29
2023-03-05T04:06:35.361Z,1.22
2023-03-05T04:09:02.389Z,1.19
2023-03-05T04:11:29.003Z,1.18
2023-03-05T04:13:55.650Z,1.12
2023-03-05T04:16:23.083Z,1.06
2023-03-05T04:18:50.147Z,1.04
2023-03-05T04:21:17.131Z,1.02
2023-03-05T04:23:44.098Z,0.98
2023-03-05T04:26:10.742Z,0.95
2023-03-05T04:28:37.693Z,0.95
2023-03-05T04:31:04.604Z,0.94
2023-03-05T04:33:31.783Z,0.94
2023-03-05T04:35:58.652Z,0.90
2023-03-05T04:38:25.351Z,0.91
2023-03-05T04:40:52.140Z,0.92
2023-03-05T04:43:18.839Z,0.87
2023-03-05T04:45:45.469Z,0.84
2023-03-05T04:48:12.436Z,0.83
2023-03-05T04:50:39.440Z,0.82
2023-03-05T04:53:06.226Z,0.79
2023-03-05T04:55:33.564Z,0.80
2023-03-05T04:58:00.401Z,0.82
2023-03-05T05:00:27.156Z,0.84
2023-03-05T05:02:54.051Z,0.85
2023-03-05T05:05:24.288Z,0.86
2023-03-05T05:07:58.339Z,0.86
2023-03-05T05:10:26.101Z,0.88
2023-03-05T05:12:53.473Z,0.89
2023-03-05T05:15:20.693Z,0.88
2023-03-05T05:17:48.283Z,0.90
2023-03-05T05:20:16.542Z,0.93
2023-03-05T05:22:44.054Z,0.97
2023-03-05T05:25:10.868Z,0.98
2023-03-05T05:27:39.524Z,1.04
2023-03-05T05:30:07.176Z,1.14
2023-03-05T05:32:34.860Z,1.21
2023-03-05T05:35:01.922Z,1.25
2023-03-05T05:37:30.068Z,1.25
2023-03-05T05:39:57.031Z,1.31
2023-03-05T05:42:24.794Z,1.38
2023-03-05T05:44:51.438Z,1.43
2023-03-05T05:47:18.771Z,1.47
2023-03-05T05:49:45.625Z,1.53
2023-03-05T05:52:13.694Z,1.60
2023-03-05T05:54:40.340Z,1.71
2023-03-05T05:57:07.395Z,1.80
2023-03-05T05:59:34.331Z,1.96
2023-03-05T06:02:01.174Z,2.13
2023-03-05T06:04:28.003Z,2.30
2023-03-05T06:06:54.760Z,2.47
2023-03-05T06:09:21.358Z,2.66
2023-03-05T06:11:48.077Z,2.82
2023-03-05T06:14:14.772Z,2.93
2023-03-05T06:16:41.660Z,3.10
2023-03-05T06:19:11.636Z,3.23
2023-03-05T06:21:38.617Z,3.36
2023-03-05T06:24:05.827Z,3.44
2023-03-05T06:26:32.770Z,3.52
2023-03-05T06:28:59.704Z,3.59
2023-03-05T06:31:27.893Z,3.59
2023-03-05T06:33:57.636Z,3.58
2023-03-05T06:36:25.488Z,3.60
2023-03-05T06:38:53.424Z,3.64
2023-03-05T06:41:24.483Z,3.66
2023-03-05T06:43:51.365Z,3.75
2023-03-05T06:46:27.527Z,3.73
2023-03-05T06:49:00.083Z,3.67
2023-03-05T06:51:31.303Z,3.66
2023-03-05T06:54:04.917Z,3.67
2023-03-05T06:56:32.601Z,3.70
2023-03-05T06:58:59.191Z,3.75
2023-03-05T07:01:26.085Z,3.79
2023-03-05T07:03:54.640Z,3.78
2023-03-05T07:06:22.204Z,3.88
2023-03-05T07:08:48.924Z,3.87
2023-03-05T07:11:20.399Z,3.93
2023-03-05T07:13:48.355Z,3.93
2023-03-05T07:16:17.948Z,3.92
2023-03-05T07:18:45.425Z,3.91
2023-03-05T07:21:18.723Z,3.96
2023-03-05T07:23:45.450Z,3.99
2023-03-05T07:26:12.818Z,4.07
2023-03-05T07:28:40.505Z,4.15
2023-03-05T07:31:11.650Z,4.33
2023-03-05T07:33:39.076Z,4.56
2023-03-05T07:36:10.320Z,4.73
2023-03-05T07:38:37.393Z,5.14
2023-03-05T07:41:11.576Z,6.15
2023-03-05T07:43:39.160Z,6.78
2023-03-05T07:46:07.602Z,8.17
2023-03-05T07:48:34.776Z,9.31
2023-03-05T07:51:02.890Z,10.57
2023-03-05T07:53:29.965Z,10.61
2023-03-05T07:55:57.458Z,10.26
2023-03-05T07:58:24.285Z,9.85
2023-03-05T08:00:51.038Z,9.76
2023-03-05T08:03:18.087Z,9.49
2023-03-05T08:05:45.032Z,9.19
2023-03-05T08:08:12.173Z,9.06
2023-03-05T08:10:39.427Z,8.98
2023-03-05T08:13:06.371Z,8.95
2023-03-05T08:15:33.738Z,9.07
2023-03-05T08:18:01.124Z,9.20
2023-03-05T08:20:27.894Z,9.22
2023-03-05T08:22:54.773Z,9.23
2023-03-05T08:25:22.308Z,9.23
2023-03-05T08:27:48.898Z,9.11
2023-03-05T08:30:21.128Z,9.02
2023-03-05T08:32:51.046Z,9.00
2023-03-05T08:35:17.700Z,9.09
2023-03-05T08:37:44.277Z,9.30
2023-03-05T08:40:11.972Z,9.47
2023-03-05T08:42:38.545Z,9.59
2023-03-05T08:45:05.971Z,9.68
2023-03-05T08:47:32.582Z,9.82
2023-03-05T08:49:59.154Z,10.00
2023-03-05T08:52:26.926Z,10.18
2023-03-05T08:54:53.642Z,10.31
2023-03-05T08:57:20.415Z,10.52
2023-03-05T08:59:47.294Z,10.76
2023-03-05T09:02:14.088Z,11.02
2023-03-05T09:04:40.936Z,11.16
2023-03-05T09:07:07.674Z,11.24
2023-03-05T09:09:34.516Z,11.43
2023-03-05T09:12:02.377Z,11.70
2023-03-05T09:14:29.253Z,11.92
2023-03-05T09:16:57.102Z,12.16
2023-03-05T09:19:27.009Z,12.45
2023-03-05T09:21:56.027Z,12.71
2023-03-05T09:24:23.750Z,12.92
2023-03-05T09:26:50.557Z,13.20
2023-03-05T09:29:17.340Z,13.53
2023-03-05T09:31:44.182Z,13.83
2023-03-05T09:34:11.792Z,14.07
2023-03-05T09:36:38.596Z,14.43
2023-03-05T09:39:06.462Z,14.53
2023-03-05T09:41:54.944Z,14.86
2023-03-05T09:44:30.725Z,15.02
2023-03-05T09:47:44.976Z,15.05
2023-03-05T09:50:31.953Z,15.07
2023-03-05T09:53:05.715Z,14.61
2023-03-05T09:55:39.866Z,14.13
2023-03-05T09:58:13.260Z,13.59
2023-03-05T10:00:49.695Z,13.05
2023-03-05T10:03:24.901Z,12.60
2023-03-05T10:05:59.931Z,12.34
2023-03-05T10:08:34.591Z,12.05
2023-03-05T10:11:10.384Z,11.79
2023-03-05T10:13:42.332Z,11.54
2023-03-05T10:16:34.259Z,11.47
2023-03-05T10:19:32.222Z,11.45
2023-03-05T10:22:18.772Z,11.33
2023-03-05T10:25:11.557Z,11.35
2023-03-05T10:27:58.889Z,11.56
2023-03-05T10:30:54.261Z,11.71
2023-03-05T10:33:26.898Z,11.92
2023-03-05T10:36:10.638Z,12.08
2023-03-05T10:38:52.227Z,12.31
2023-03-05T10:41:55.223Z,12.39
2023-03-05T10:44:44.107Z,12.47
2023-03-05T10:47:20.142Z,12.42
2023-03-05T10:49:52.748Z,12.24
2023-03-05T10:52:36.463Z,12.06
2023-03-05T10:55:15.301Z,11.89
2023-03-05T10:57:42.040Z,11.75
2023-03-05T11:00:23.603Z,11.76
2023-03-05T11:03:05.012Z,11.79
2023-03-05T11:05:45.559Z,11.99
2023-03-05T11:08:24.380Z,12.08
2023-03-05T11:11:09.858Z,12.16
2023-03-05T11:13:58.672Z,12.39
2023-03-05T11:16:29.811Z,12.33
2023-03-05T11:19:23.974Z,12.26
2023-03-05T11:22:15.568Z,12.20
2023-03-05T11:24:46.066Z,12.15
2023-03-05T11:27:35.266Z,12.93
2023-03-05T11:30:03.039Z,14.00
2023-03-05T11:32:30.867Z,13.87
2023-03-05T11:34:57.839Z,13.85
2023-03-05T11:37:26.839Z,14.17
2023-03-05T11:40:15.690Z,15.39
2023-03-05T11:42:43.286Z,15.79
2023-03-05T11:45:19.350Z,18.60
2023-03-05T11:47:52.328Z,21.19
2023-03-05T11:50:24.281Z,22.33
2023-03-05T11:52:55.200Z,21.04
2023-03-05T11:55:29.529Z,19.52
2023-03-05T11:58:04.959Z,18.23
2023-03-05T12:00:35.959Z,17.14
2023-03-05T12:03:11.130Z,16.19
2023-03-05T12:05:43.564Z,15.61
2023-03-05T12:08:15.353Z,15.15
2023-03-05T12:10:42.342Z,14.70
2023-03-05T12:13:22.529Z,14.82
2023-03-05T12:16:19.703Z,15.98
2023-03-05T12:19:09.483Z,16.24
2023-03-05T12:21:39.227Z,16.07
2023-03-05T12:24:26.706Z,15.88
2023-03-05T12:27:03.930Z,15.66
2023-03-05T12:29:30.633Z,15.40
2023-03-05T12:31:58.566Z,15.09
2023-03-05T12:34:40.668Z,14.82
2023-03-05T12:37:33.576Z,14.49
2023-03-05T12:40:20.000Z,14.30
2023-03-05T12:42:56.877Z,14.64
2023-03-05T12:45:30.864Z,14.41
2023-03-05T12:47:57.487Z,14.37
2023-03-05T12:50:27.286Z,14.12
2023-03-05T12:53:09.481Z,13.83
2023-03-05T12:55:48.094Z,13.49
2023-03-05T12:58:25.358Z,13.16
2023-03-05T13:00:56.505Z,12.99
2023-03-05T13:03:36.903Z,12.85
2023-03-05T13:06:06.104Z,12.71
2023-03-05T13:08:37.259Z,12.58
2023-03-05T13:11:18.186Z,12.55
2023-03-05T13:13:46.941Z,12.59
2023-03-05T13:16:28.571Z,12.56
2023-03-05T13:18:58.947Z,12.53
2023-03-05T13:21:31.266Z,12.40
2023-03-05T13:24:00.870Z,12.27
2023-03-05T13:26:38.177Z,12.14
2023-03-05T13:29:08.766Z,12.01
2023-03-05T13:31:39.943Z,11.85
2023-03-05T13:34:18.845Z,11.69
2023-03-05T13:36:55.759Z,11.51
2023-03-05T13:39:27.201Z,11.33
2023-03-05T13:42:16.970Z,11.17
2023-03-05T13:44:53.433Z,10.92
2023-03-05T13:47:22.103Z,10.60
2023-03-05T13:49:57.033Z,10.34
2023-03-05T13:52:29.410Z,9.94
2023-03-05T13:54:57.126Z,9.69
2023-03-05T13:57:40.202Z,9.44
2023-03-05T14:00:32.482Z,9.15
2023-03-05T14:03:08.889Z,8.95
2023-03-05T14:05:35.839Z,8.77
2023-03-05T14:08:02.990Z,8.67
2023-03-05T14:10:36.270Z,8.57
2023-03-05T14:13:06.375Z,8.46
2023-03-05T14:15:35.208Z,8.43
2023-03-05T14:18:11.146Z,8.42
2023-03-05T14:21:08.299Z,8.40
2023-03-05T14:23:42.980Z,8.36
2023-03-05T14:26:22.273Z,8.32
2023-03-05T14:29:17.186Z,8.22
2023-03-05T14:31:55.938Z,8.17
2023-03-05T14:34:32.290Z,8.11
2023-03-05T14:37:03.816Z,8.06
2023-03-05T14:39:49.393Z,8.00
2023-03-05T14:42:28.727Z,7.88
2023-03-05T14:44:57.967Z,7.86
2023-03-05T14:47:26.586Z,7.81
2023-03-05T14:49:54.295Z,7.79
2023-03-05T14:52:23.600Z,7.75
2023-03-05T14:54:51.403Z,7.74
2023-03-05T14:57:24.758Z,7.73
2023-03-05T14:59:52.016Z,7.76
2023-03-05T15:02:22.968Z,7.72
2023-03-05T15:04:49.672Z,7.71
2023-03-05T15:07:29.216Z,7.67
2023-03-05T15:09:57.338Z,7.63
2023-03-05T15:12:24.173Z,7.53
2023-03-05T15:14:55.283Z,7.48
2023-03-05T15:17:30.456Z,7.45
2023-03-05T15:19:57.355Z,7.37
2023-03-05T15:22:24.088Z,7.22
2023-03-05T15:24:50.726Z,7.14
2023-03-05T15:27:17.689Z,7.08
2023-03-05T15:29:44.386Z,6.97
2023-03-05T15:32:11.330Z,6.87
2023-03-05T15:34:38.318Z,6.79
2023-03-05T15:37:05.160Z,6.74
2023-03-05T15:39:32.099Z,6.65
2023-03-05T15:41:59.558Z,6.62
2023-03-05T15:44:27.007Z,6.63
2023-03-05T15:46:56.236Z,6.63
2023-03-05T15:49:24.102Z,6.57
2023-03-05T15:51:51.546Z,6.48
2023-03-05T15:54:18.790Z,6.34
2023-03-05T15:56:45.562Z,6.32
2023-03-05T15:59:14.121Z,6.29
2023-03-05T16:01:48.571Z,6.20
2023-03-05T16:04:17.072Z,6.18
2023-03-05T16:06:47.242Z,6.18
2023-03-05T16:09:15.324Z,6.11
2023-03-05T16:11:48.611Z,6.09
2023-03-05T16:14:22.781Z,6.08
2023-03-05T16:16:51.404Z,6.02
2023-03-05T16:19:19.275Z,6.02
2023-03-05T16:21:46.222Z,6.06
2023-03-05T16:24:13.584Z,6.12
2023-03-05T16:26:41.343Z,6.16
2023-03-05T16:29:08.498Z,6.11
2023-03-05T16:31:40.866Z,6.02
2023-03-05T16:34:07.919Z,5.96
2023-03-05T16:36:35.198Z,5.97
2023-03-05T16:39:04.055Z,5.91
2023-03-05T16:41:31.334Z,5.84
2023-03-05T16:43:58.882Z,5.78
2023-03-05T16:46:27.705Z,5.69
2023-03-05T16:48:54.606Z,5.63
2023-03-05T16:51:21.352Z,5.56
2023-03-05T16:53:48.410Z,5.54
2023-03-05T16:56:15.557Z,5.57
2023-03-05T16:58:42.173Z,5.52
2023-03-05T17:01:15.858Z,5.48
2023-03-05T17:03:43.514Z,5.48
2023-03-05T17:06:13.762Z,5.45
2023-03-05T17:08:42.148Z,5.39
2023-03-05T17:11:10.176Z,5.35
2023-03-05T17:13:37.120Z,5.31
2023-03-05T17:16:05.161Z,5.30
2023-03-05T17:18:32.480Z,5.26
2023-03-05T17:21:00.582Z,5.19
2023-03-05T17:23:27.999Z,5.17
2023-03-05T17:25:54.961Z,5.15
2023-03-05T17:28:21.803Z,5.16
2023-03-05T17:30:48.429Z,5.13
2023-03-05T17:33:15.216Z,5.12
2023-03-05T17:35:47.651Z,5.10
2023-03-05T17:38:14.402Z,5.06
2023-03-05T17:40:41.282Z,5.03
2023-03-05T17:43:08.314Z,5.01
2023-03-05T17:45:35.588Z,4.98
2023-03-05T17:48:03.104Z,5.05
2023-03-05T17:50:30.456Z,5.04
2023-03-05T17:52:57.169Z,4.97
2023-03-05T17:55:25.164Z,4.97
2023-03-05T17:57:52.827Z,4.99
2023-03-05T18:00:25.760Z,5.04
2023-03-05T18:02:53.673Z,5.04
2023-03-05T18:05:22.497Z,5.00
2023-03-05T18:07:50.131Z,4.98
2023-03-05T18:10:18.588Z,4.88
2023-03-05T18:12:45.653Z,4.87
2023-03-05T18:15:14.766Z,4.89
2023-03-05T18:17:42.113Z,4.94
2023-03-05T18:20:22.403Z,4.95
2023-03-05T18:22:49.111Z,4.97
2023-03-05T18:25:15.853Z,4.99
2023-03-05T18:27:42.597Z,5.00
2023-03-05T18:30:10.167Z,5.02
2023-03-05T18:32:36.912Z,5.00
2023-03-05T18:35:05.569Z,5.03
2023-03-05T18:37:32.163Z,5.00
2023-03-05T18:39:59.022Z,4.97
2023-03-05T18:42:25.800Z,4.97
2023-03-05T18:44:52.638Z,4.95
2023-03-05T18:47:19.477Z,4.94
2023-03-05T18:49:46.432Z,4.93
2023-03-05T18:52:13.364Z,4.90
2023-03-05T18:54:40.529Z,4.90
2023-03-05T18:57:08.484Z,4.88
2023-03-05T18:59:35.125Z,4.90
2023-03-05T19:02:01.765Z,4.93
2023-03-05T19:04:28.853Z,4.93
2023-03-05T19:06:55.765Z,4.88
2023-03-05T19:09:52.713Z,4.89
2023-03-05T19:12:21.094Z,4.89
2023-03-05T19:14:48.036Z,4.90
2023-03-05T19:17:15.293Z,4.92
2023-03-05T19:19:44.703Z,4.95
2023-03-05T19:22:11.952Z,4.97
2023-03-05T19:24:38.780Z,5.02
2023-03-05T19:27:13.006Z,5.04
2023-03-05T19:29:41.588Z,5.09
2023-03-05T19:32:13.686Z,5.13
2023-03-05T19:34:41.214Z,5.14
2023-03-05T19:37:08.061Z,5.15
2023-03-05T19:39:35.197Z,5.14
2023-03-05T19:42:03.184Z,5.18
2023-03-05T19:44:30.926Z,5.20
2023-03-05T19:46:57.679Z,5.21
2023-03-05T19:49:24.434Z,5.20
2023-03-05T19:51:51.249Z,5.14
2023-03-05T19:54:19.528Z,5.11
2023-03-05T19:56:48.297Z,5.12
2023-03-05T19:59:17.521Z,5.15
2023-03-05T20:01:45.214Z,5.10
2023-03-05T20:04:15.101Z,5.14
2023-03-05T20:06:45.040Z,5.15
2023-03-05T20:09:12.258Z,5.17
2023-03-05T20:11:40.796Z,5.16
2023-03-05T20:14:08.710Z,5.14
2023-03-05T20:16:37.302Z,5.10
2023-03-05T20:19:06.702Z,5.10
2023-03-05T20:21:38.607Z,5.10
2023-03-05T20:24:09.771Z,5.12
2023-03-05T20:26:38.414Z,5.14
2023-03-05T20:29:06.054Z,5.13
2023-03-05T20:31:36.279Z,5.14
2023-03-05T20:34:14.749Z,5.19
2023-03-05T20:36:41.735Z,5.23
2023-03-05T20:39:08.685Z,5.24
2023-03-05T20:41:37.381Z,5.27
2023-03-05T20:44:04.246Z,5.28
2023-03-05T20:46:33.965Z,5.26
2023-03-05T20:49:02.111Z,5.25
2023-03-05T20:51:38.757Z,5.22
2023-03-05T20:54:06.884Z,5.21
2023-03-05T20:56:34.727Z,5.20
2023-03-05T20:59:04.968Z,5.19
2023-03-05T21:01:34.856Z,5.19
2023-03-05T21:04:02.334Z,5.20
2023-03-05T21:06:30.337Z,5.22
2023-03-05T21:08:57.966Z,5.23
2023-03-05T21:11:25.812Z,5.17
2023-03-05T21:13:52.762Z,5.13
2023-03-05T21:16:23.367Z,5.11
2023-03-05T21:18:50.651Z,5.12
2023-03-05T21:21:18.121Z,5.16
2023-03-05T21:23:45.659Z,5.22
2023-03-05T21:26:13.514Z,5.23
2023-03-05T21:28:40.835Z,5.20
2023-03-05T21:31:19.327Z,5.20
2023-03-05T21:33:46.164Z,5.19
2023-03-05T21:36:12.987Z,5.20
2023-03-05T21:38:40.034Z,5.16
2023-03-05T21:41:06.660Z,5.19
2023-03-05T21:43:34.125Z,5.21
2023-03-05T21:46:02.443Z,5.21
2023-03-05T21:48:30.166Z,5.20
2023-03-05T21:50:57.712Z,5.24
2023-03-05T21:53:25.270Z,5.25
2023-03-05T21:56:10.165Z,5.27
2023-03-05T21:58:38.981Z,5.29
2023-03-05T22:01:05.556Z,5.26
2023-03-05T22:03:32.904Z,5.22
2023-03-05T22:06:00.177Z,5.17
2023-03-05T22:08:29.273Z,5.11
2023-03-05T22:10:56.019Z,4.99
2023-03-05T22:13:22.752Z,4.88
2023-03-05T22:15:54.778Z,4.79
2023-03-05T22:18:22.897Z,4.65
2023-03-05T22:20:50.158Z,4.43
2023-03-05T22:23:18.111Z,4.17
2023-03-05T22:25:44.948Z,3.88
2023-03-05T22:28:12.688Z,3.71
2023-03-05T22:30:44.042Z,3.62
2023-03-05T22:33:11.721Z,3.52
2023-03-05T22:35:40.247Z,3.44
2023-03-05T22:38:09.203Z,3.43
2023-03-05T22:40:38.707Z,3.44
2023-03-05T22:43:05.352Z,3.43
2023-03-05T22:45:32.302Z,3.49
2023-03-05T22:47:59.552Z,3.59
2023-03-05T22:50:26.610Z,3.70
2023-03-05T22:52:53.726Z,3.80
2023-03-05T22:55:20.990Z,3.89
2023-03-05T22:57:47.726Z,3.96
2023-03-05T23:00:20.783Z,4.06
2023-03-05T23:02:47.679Z,4.16
2023-03-05T23:05:14.727Z,4.27
2023-03-05T23:07:43.195Z,4.34
2023-03-05T23:10:13.094Z,4.43
2023-03-05T23:12:45.825Z,4.52
2023-03-05T23:15:22.226Z,4.62
2023-03-05T23:17:48.894Z,4.68
2023-03-05T23:20:17.388Z,4.73
2023-03-05T23:22:44.627Z,4.75
2023-03-05T23:25:12.965Z,4.78
2023-03-05T23:27:40.688Z,4.83
2023-03-05T23:30:20.681Z,4.85
2023-03-05T23:32:59.460Z,4.85
2023-03-05T23:35:30.644Z,4.85
2023-03-05T23:37:58.766Z,4.85
2023-03-05T23:40:28.019Z,4.88
2023-03-05T23:42:54.812Z,4.88
2023-03-05T23:45:23.283Z,4.89
2023-03-05T23:47:51.049Z,4.92
2023-03-05T23:50:30.209Z,4.94
2023-03-05T23:52:57.442Z,4.96
2023-03-05T23:55:27.254Z,5.02
2023-03-05T23:57:54.719Z,5.06
